createdAt,value
2019-04-01T00:00:01.045Z,936.7
2019-04-01T00:01:01.392Z,936.7
2019-04-01T00:02:01.297Z,936.7
2019-04-01T00:03:01.241Z,936.7
2019-04-01T00:04:01.144Z,936.8
2019-04-01T00:05:01.199Z,936.7
2019-04-01T00:06:01.105Z,936.7
2019-04-01T00:07:01.000Z,936
2019-04-01T00:08:00.891Z,936.7
2019-04-01T00:09:00.937Z,936.6
2019-04-01T00:10:00.993Z,936.6
2019-04-01T00:11:01.356Z,936.6
2019-04-01T00:12:01.081Z,936.5
2019-04-01T00:13:00.863Z,936.6
2019-04-01T00:14:00.673Z,936.5
2019-04-01T00:15:00.475Z,936.6
2019-04-01T00:16:00.229Z,935.2
2019-04-01T00:16:59.959Z,936.5
2019-04-01T00:17:59.683Z,936.6
2019-04-01T00:19:04.307Z,936.5
2019-04-01T00:20:04.034Z,936.5
2019-04-01T00:21:04.204Z,936.6
2019-04-01T00:22:03.933Z,936.6
2019-04-01T00:23:04.540Z,936.6
2019-04-01T00:24:04.327Z,936.6
2019-04-01T00:25:04.058Z,936.5
2019-04-01T00:26:03.814Z,936.6
2019-04-01T00:27:03.569Z,936.5
2019-04-01T00:28:03.407Z,936.6
2019-04-01T00:29:03.125Z,936.7
2019-04-01T00:30:02.853Z,936.6
2019-04-01T00:31:03.182Z,936.5
2019-04-01T00:32:03.069Z,936.5
2019-04-01T00:33:02.978Z,936.5
2019-04-01T00:34:02.968Z,936.5
2019-04-01T00:35:02.875Z,936.5
2019-04-01T00:36:02.801Z,936.5
2019-04-01T00:37:02.732Z,936.6
2019-04-01T00:38:02.626Z,936.5
2019-04-01T00:39:02.503Z,936.5
2019-04-01T00:40:02.408Z,936.5
2019-04-01T00:41:02.759Z,936.5
2019-04-01T00:42:02.809Z,936.5
2019-04-01T00:43:02.698Z,936.5
2019-04-01T00:44:02.605Z,936.6
2019-04-01T00:45:02.501Z,936.5
2019-04-01T00:46:02.411Z,936.5
2019-04-01T00:47:02.383Z,936.4
2019-04-01T00:48:02.281Z,936.3
2019-04-01T00:49:02.230Z,936.5
2019-04-01T00:50:02.129Z,936.5
2019-04-01T00:51:02.452Z,936.4
2019-04-01T00:52:02.365Z,936.5
2019-04-01T00:53:02.275Z,936.4
2019-04-01T00:54:02.148Z,936.4
2019-04-01T00:55:02.064Z,936.4
2019-04-01T00:56:01.955Z,936.4
2019-04-01T00:57:01.868Z,936.5
2019-04-01T00:58:01.771Z,936.4
2019-04-01T00:59:01.649Z,936.4
2019-04-01T01:00:04.253Z,936.4
2019-04-01T01:01:04.547Z,936.4
2019-04-01T01:02:04.423Z,936.3
2019-04-01T01:03:04.396Z,936.4
2019-04-01T01:04:04.329Z,936.3
2019-04-01T01:05:04.219Z,936.4
2019-04-01T01:06:04.098Z,936.3
2019-04-01T01:07:03.992Z,936.3
2019-04-01T01:08:04.001Z,936.3
2019-04-01T01:09:03.903Z,936.3
2019-04-01T01:10:03.801Z,936.3
2019-04-01T01:11:04.114Z,936.4
2019-04-01T01:12:03.999Z,936.5
2019-04-01T01:13:03.914Z,936.5
2019-04-01T01:14:03.827Z,936.5
2019-04-01T01:15:03.725Z,936.4
2019-04-01T01:16:03.629Z,936.5
2019-04-01T01:17:03.507Z,935.7
2019-04-01T01:18:03.413Z,936.4
2019-04-01T01:19:03.411Z,936.4
2019-04-01T01:20:03.324Z,935.2
2019-04-01T01:21:03.625Z,936.3
2019-04-01T01:22:03.526Z,936.3
2019-04-01T01:23:03.421Z,936.5
2019-04-01T01:24:03.389Z,936.4
2019-04-01T01:25:03.320Z,936.4
2019-04-01T01:26:03.199Z,936.4
2019-04-01T01:27:03.157Z,936.2
2019-04-01T01:28:03.043Z,936.4
2019-04-01T01:29:02.946Z,936.4
2019-04-01T01:30:02.851Z,936.3
2019-04-01T01:31:03.180Z,936.4
2019-04-01T01:32:02.906Z,936.2
2019-04-01T01:33:02.644Z,936.3
2019-04-01T01:34:02.363Z,936.3
2019-04-01T01:35:02.117Z,936.2
2019-04-01T01:36:01.880Z,936.2
2019-04-01T01:37:01.606Z,936.3
2019-04-01T01:38:01.338Z,936.3
2019-04-01T01:39:01.080Z,936.2
2019-04-01T01:40:01.052Z,936.2
2019-04-01T01:41:01.224Z,936.3
2019-04-01T01:42:00.944Z,936.2
2019-04-01T01:43:00.677Z,936.2
2019-04-01T01:44:00.450Z,936.2
2019-04-01T01:45:00.405Z,936.3
2019-04-01T01:46:00.171Z,936.3
2019-04-01T01:46:59.910Z,936.2
2019-04-01T01:47:59.649Z,936.4
2019-04-01T01:48:59.373Z,936.4
2019-04-01T01:49:59.126Z,935
2019-04-01T01:50:59.464Z,936.4
2019-04-01T01:51:59.339Z,936.3
2019-04-01T01:52:59.267Z,936.3
2019-04-01T01:53:59.164Z,936.2
2019-04-01T01:54:59.092Z,936.2
2019-04-01T01:55:59.002Z,936.2
2019-04-01T01:56:58.878Z,936.3
2019-04-01T01:57:58.771Z,935.6
2019-04-01T01:58:58.678Z,935.3
2019-04-01T01:59:58.592Z,936.1
2019-04-01T02:00:58.903Z,935.2
2019-04-01T02:01:58.811Z,936.2
2019-04-01T02:02:58.742Z,936.1
2019-04-01T02:03:58.740Z,936.1
2019-04-01T02:04:58.632Z,936.2
2019-04-01T02:05:58.546Z,936.1
2019-04-01T02:06:58.454Z,936.2
2019-04-01T02:07:58.346Z,936.2
2019-04-01T02:08:58.282Z,936.3
2019-04-01T02:09:58.174Z,936.2
2019-04-01T02:10:58.508Z,936.2
2019-04-01T02:11:58.236Z,936
2019-04-01T02:12:57.970Z,936.2
2019-04-01T02:13:57.702Z,936.1
2019-04-01T02:14:57.442Z,936
2019-04-01T02:15:57.176Z,936.2
2019-04-01T02:16:56.932Z,936.2
2019-04-01T02:17:56.698Z,936.2
2019-04-01T02:18:56.564Z,936.2
2019-04-01T02:19:56.284Z,936.1
2019-04-01T02:20:56.585Z,936.2
2019-04-01T02:21:56.521Z,936.2
2019-04-01T02:22:56.450Z,936.2
2019-04-01T02:23:56.334Z,936.2
2019-04-01T02:24:56.354Z,936.2
2019-04-01T02:25:56.350Z,936.2
2019-04-01T02:26:56.244Z,936.2
2019-04-01T02:27:56.151Z,936.1
2019-04-01T02:28:56.026Z,936.2
2019-04-01T02:29:55.920Z,936.2
2019-04-01T02:30:56.446Z,936.2
2019-04-01T02:31:56.366Z,936.2
2019-04-01T02:32:56.292Z,936.2
2019-04-01T02:33:56.209Z,936.2
2019-04-01T02:34:56.165Z,936
2019-04-01T02:35:56.061Z,936.1
2019-04-01T02:36:55.950Z,936
2019-04-01T02:37:55.891Z,936
2019-04-01T02:38:55.804Z,936.1
2019-04-01T02:39:55.708Z,936.2
2019-04-01T02:40:56.036Z,936.1
2019-04-01T02:41:55.917Z,936.1
2019-04-01T02:42:55.853Z,936.1
2019-04-01T02:43:55.782Z,936
2019-04-01T02:44:55.693Z,935.9
2019-04-01T02:45:55.567Z,936.1
2019-04-01T02:46:55.504Z,935.9
2019-04-01T02:47:55.409Z,935.9
2019-04-01T02:48:55.363Z,936
2019-04-01T02:49:55.403Z,936
2019-04-01T02:50:55.923Z,936.1
2019-04-01T02:51:55.829Z,936
2019-04-01T02:52:55.739Z,936
2019-04-01T02:53:55.662Z,936
2019-04-01T02:54:55.571Z,936
2019-04-01T02:55:55.575Z,936
2019-04-01T02:56:55.504Z,936
2019-04-01T02:57:55.445Z,936
2019-04-01T02:58:55.414Z,936.1
2019-04-01T02:59:55.412Z,936
2019-04-01T03:00:55.784Z,936
2019-04-01T03:01:55.630Z,936
2019-04-01T03:02:55.366Z,936
2019-04-01T03:03:55.156Z,936
2019-04-01T03:04:54.891Z,936
2019-04-01T03:05:54.638Z,936
2019-04-01T03:06:54.365Z,936.1
2019-04-01T03:07:54.102Z,936
2019-04-01T03:08:53.829Z,936.1
2019-04-01T03:09:53.592Z,936.1
2019-04-01T03:10:53.803Z,936.1
2019-04-01T03:11:53.569Z,936.1
2019-04-01T03:12:53.311Z,936.1
2019-04-01T03:13:53.206Z,936.1
2019-04-01T03:14:52.953Z,936.1
2019-04-01T03:15:52.682Z,936.1
2019-04-01T03:16:52.475Z,936.1
2019-04-01T03:17:52.224Z,936
2019-04-01T03:18:51.978Z,936
2019-04-01T03:19:51.742Z,935.9
2019-04-01T03:20:51.924Z,936.1
2019-04-01T03:21:51.696Z,936.1
2019-04-01T03:22:51.491Z,936.2
2019-04-01T03:23:51.230Z,936.1
2019-04-01T03:24:51.018Z,936.1
2019-04-01T03:25:50.762Z,934.7
2019-04-01T03:26:50.528Z,936.1
2019-04-01T03:27:50.326Z,936.2
2019-04-01T03:28:50.062Z,936.1
2019-04-01T03:29:49.797Z,936.2
2019-04-01T03:30:50.241Z,936.1
2019-04-01T03:31:50.187Z,935
2019-04-01T03:32:50.168Z,936.1
2019-04-01T03:33:50.159Z,936.1
2019-04-01T03:34:50.200Z,936.2
2019-04-01T03:35:50.228Z,936.2
2019-04-01T03:36:50.139Z,936.2
2019-04-01T03:37:50.045Z,936.2
2019-04-01T03:38:49.951Z,936.2
2019-04-01T03:39:49.884Z,936.2
2019-04-01T03:40:50.295Z,936.2
2019-04-01T03:41:50.218Z,936.2
2019-04-01T03:42:50.149Z,936.1
2019-04-01T03:43:50.081Z,936.2
2019-04-01T03:44:55.847Z,936.2
2019-04-01T03:45:55.767Z,936.2
2019-04-01T03:46:55.718Z,936.1
2019-04-01T03:47:55.609Z,936
2019-04-01T03:48:55.528Z,936.2
2019-04-01T03:49:55.446Z,936.1
2019-04-01T03:50:55.764Z,936.2
2019-04-01T03:51:55.697Z,936.2
2019-04-01T03:52:55.655Z,936
2019-04-01T03:53:55.567Z,936.1
2019-04-01T03:54:55.483Z,936.1
2019-04-01T03:55:55.389Z,936.1
2019-04-01T03:56:55.326Z,936.1
2019-04-01T03:57:55.255Z,936.2
2019-04-01T03:58:55.174Z,935.9
2019-04-01T03:59:55.101Z,935.1
2019-04-01T04:00:55.571Z,936.1
2019-04-01T04:01:55.492Z,936
2019-04-01T04:02:55.471Z,936
2019-04-01T04:03:55.407Z,936
2019-04-01T04:04:55.322Z,936
2019-04-01T04:05:55.251Z,936.2
2019-04-01T04:06:55.172Z,936.1
2019-04-01T04:07:55.095Z,936.1
2019-04-01T04:08:55.009Z,936.1
2019-04-01T04:09:54.899Z,936.1
2019-04-01T04:10:55.263Z,936
2019-04-01T04:11:55.211Z,936.2
2019-04-01T04:12:55.141Z,936.1
2019-04-01T04:13:55.069Z,936
2019-04-01T04:14:55.028Z,936.1
2019-04-01T04:15:54.934Z,936.1
2019-04-01T04:16:54.853Z,936.1
2019-04-01T04:17:54.955Z,936.1
2019-04-01T04:18:54.871Z,936.1
2019-04-01T04:19:54.771Z,936.1
2019-04-01T04:20:55.115Z,936
2019-04-01T04:21:55.101Z,936.1
2019-04-01T04:22:55.052Z,936.1
2019-04-01T04:23:54.987Z,936.1
2019-04-01T04:24:54.901Z,936.2
2019-04-01T04:25:54.825Z,936.1
2019-04-01T04:26:54.741Z,936
2019-04-01T04:27:54.677Z,936.1
2019-04-01T04:28:54.593Z,936.1
2019-04-01T04:29:54.521Z,936.2
2019-04-01T04:30:54.876Z,936
2019-04-01T04:31:54.744Z,936.1
2019-04-01T04:32:54.482Z,936
2019-04-01T04:33:54.235Z,936.1
2019-04-01T04:34:58.339Z,936.1
2019-04-01T04:35:58.069Z,936.2
2019-04-01T04:36:57.879Z,936
2019-04-01T04:37:57.628Z,936.1
2019-04-01T04:38:57.390Z,936
2019-04-01T04:39:57.142Z,936.2
2019-04-01T04:40:57.455Z,936.1
2019-04-01T04:41:57.394Z,936.2
2019-04-01T04:42:57.305Z,936
2019-04-01T04:43:57.190Z,936.1
2019-04-01T04:44:57.100Z,936.2
2019-04-01T04:45:56.974Z,936.2
2019-04-01T04:46:59.150Z,936
2019-04-01T04:47:59.038Z,936.2
2019-04-01T04:48:58.939Z,936.1
2019-04-01T04:49:58.868Z,936.1
2019-04-01T04:50:59.197Z,936.1
2019-04-01T04:51:59.105Z,936.1
2019-04-01T04:52:59.039Z,936
2019-04-01T04:53:58.921Z,935.9
2019-04-01T04:54:58.843Z,936.1
2019-04-01T04:55:58.781Z,935.9
2019-04-01T04:56:58.671Z,936
2019-04-01T04:57:58.553Z,936
2019-04-01T04:58:58.435Z,935.9
2019-04-01T04:59:58.325Z,936.1
2019-04-01T05:00:58.684Z,936.1
2019-04-01T05:01:58.588Z,935.3
2019-04-01T05:02:58.468Z,936
2019-04-01T05:03:58.364Z,936
2019-04-01T05:04:58.260Z,936.1
2019-04-01T05:05:58.177Z,936.1
2019-04-01T05:06:58.264Z,936.1
2019-04-01T05:07:58.158Z,936
2019-04-01T05:08:58.055Z,936.1
2019-04-01T05:09:57.926Z,936.1
2019-04-01T05:10:58.273Z,936
2019-04-01T05:11:58.163Z,936
2019-04-01T05:12:58.046Z,936.1
2019-04-01T05:13:57.956Z,936.1
2019-04-01T05:14:57.837Z,935.9
2019-04-01T05:15:57.792Z,936
2019-04-01T05:16:57.721Z,936
2019-04-01T05:17:57.616Z,936.1
2019-04-01T05:18:57.528Z,936
2019-04-01T05:19:57.434Z,936.1
2019-04-01T05:20:57.738Z,936
2019-04-01T05:21:57.700Z,936
2019-04-01T05:22:57.606Z,936
2019-04-01T05:23:57.507Z,936.1
2019-04-01T05:24:57.406Z,936
2019-04-01T05:25:59.820Z,936.1
2019-04-01T05:26:59.730Z,936.1
2019-04-01T05:27:59.620Z,936
2019-04-01T05:28:59.544Z,936.1
2019-04-01T05:29:59.446Z,936.1
2019-04-01T05:30:59.772Z,936.1
2019-04-01T05:31:59.681Z,936
2019-04-01T05:32:59.565Z,936.2
2019-04-01T05:33:59.442Z,936.1
2019-04-01T05:34:59.306Z,934.5
2019-04-01T05:35:59.198Z,936
2019-04-01T05:36:59.117Z,934.5
2019-04-01T05:37:59.003Z,936
2019-04-01T05:38:58.905Z,936.2
2019-04-01T05:39:58.786Z,936.2
2019-04-01T05:40:59.092Z,936.1
2019-04-01T05:41:59.013Z,936.1
2019-04-01T05:42:58.964Z,936.2
2019-04-01T05:44:02.909Z,935.9
2019-04-01T05:45:02.832Z,936.2
2019-04-01T05:46:02.726Z,936.2
2019-04-01T05:47:02.676Z,936.2
2019-04-01T05:48:02.566Z,936
2019-04-01T05:49:02.538Z,936.1
2019-04-01T05:50:02.454Z,936.1
2019-04-01T05:51:02.756Z,936.2
2019-04-01T05:52:02.649Z,936.1
2019-04-01T05:53:02.560Z,936.2
2019-04-01T05:54:02.514Z,936.2
2019-04-01T05:55:09.501Z,936.2
2019-04-01T05:56:09.456Z,936.2
2019-04-01T05:57:09.358Z,936.2
2019-04-01T05:58:09.268Z,936.2
2019-04-01T05:59:09.152Z,936.3
2019-04-01T06:00:09.029Z,936.2
2019-04-01T06:01:09.366Z,936.2
2019-04-01T06:02:09.270Z,936.1
2019-04-01T06:03:09.173Z,936.2
2019-04-01T06:04:09.057Z,936.2
2019-04-01T06:05:08.958Z,936.1
2019-04-01T06:06:08.856Z,936.2
2019-04-01T06:07:08.729Z,936
2019-04-01T06:08:08.671Z,936.1
2019-04-01T06:09:08.610Z,936.2
2019-04-01T06:10:08.500Z,936.2
2019-04-01T06:11:08.838Z,936.1
2019-04-01T06:12:08.561Z,936
2019-04-01T06:13:08.310Z,936.3
2019-04-01T06:14:08.100Z,936
2019-04-01T06:15:07.834Z,936.2
2019-04-01T06:16:07.554Z,936.1
2019-04-01T06:17:07.306Z,936.2
2019-04-01T06:18:07.040Z,936.2
2019-04-01T06:19:07.002Z,936.2
2019-04-01T06:20:06.733Z,936.2
2019-04-01T06:21:06.957Z,936.2
2019-04-01T06:22:06.700Z,936.2
2019-04-01T06:23:06.515Z,936.2
2019-04-01T06:24:06.244Z,936.3
2019-04-01T06:25:05.997Z,935.9
2019-04-01T06:26:05.804Z,936.2
2019-04-01T06:27:05.528Z,936.3
2019-04-01T06:28:05.261Z,936.3
2019-04-01T06:29:04.993Z,936.3
2019-04-01T06:30:04.746Z,936.2
2019-04-01T06:31:05.064Z,936.2
2019-04-01T06:32:04.952Z,936.2
2019-04-01T06:33:04.846Z,936.3
2019-04-01T06:34:04.734Z,936.2
2019-04-01T06:35:04.627Z,936.2
2019-04-01T06:36:04.556Z,936.1
2019-04-01T06:37:04.450Z,936.3
2019-04-01T06:38:04.331Z,936.1
2019-04-01T06:39:04.242Z,935
2019-04-01T06:40:04.140Z,936.1
2019-04-01T06:41:04.446Z,936.1
2019-04-01T06:42:08.094Z,936.2
2019-04-01T06:43:07.986Z,936.2
2019-04-01T06:44:07.908Z,936.3
2019-04-01T06:45:07.837Z,936.3
2019-04-01T06:46:07.738Z,936.3
2019-04-01T06:47:07.619Z,936.3
2019-04-01T06:48:07.501Z,936.3
2019-04-01T06:49:07.482Z,936.2
2019-04-01T06:50:07.446Z,936.2
2019-04-01T06:51:07.766Z,936.3
2019-04-01T06:52:07.652Z,936.2
2019-04-01T06:53:07.536Z,936.3
2019-04-01T06:54:07.456Z,936.3
2019-04-01T06:55:07.372Z,936.3
2019-04-01T06:56:07.297Z,936.1
2019-04-01T06:57:07.200Z,936.2
2019-04-01T06:58:07.101Z,936.2
2019-04-01T06:59:07.016Z,936.2
2019-04-01T07:00:06.901Z,936.2
2019-04-01T07:01:07.234Z,936.2
2019-04-01T07:02:07.107Z,936.2
2019-04-01T07:03:06.988Z,936.2
2019-04-01T07:04:06.904Z,936.2
2019-04-01T07:05:06.798Z,936.2
2019-04-01T07:06:06.700Z,936.2
2019-04-01T07:07:20.288Z,936.1
2019-04-01T07:08:20.205Z,936.1
2019-04-01T07:09:20.135Z,936.2
2019-04-01T07:10:20.029Z,934.9
2019-04-01T07:11:20.639Z,936.3
2019-04-01T07:12:20.555Z,936.2
2019-04-01T07:13:20.446Z,936.2
2019-04-01T07:14:20.334Z,936.1
2019-04-01T07:15:20.218Z,936.3
2019-04-01T07:16:20.126Z,936.3
2019-04-01T07:17:20.025Z,936.3
2019-04-01T07:18:19.936Z,936.3
2019-04-01T07:19:19.815Z,936.3
2019-04-01T07:20:19.730Z,936.3
2019-04-01T07:21:20.047Z,936.3
2019-04-01T07:22:19.995Z,936.1
2019-04-01T07:23:19.992Z,936.1
2019-04-01T07:24:19.910Z,936.3
2019-04-01T07:25:19.793Z,936.3
2019-04-01T07:26:19.681Z,936.2
2019-04-01T07:27:19.586Z,936.3
2019-04-01T07:28:19.493Z,936.3
2019-04-01T07:29:19.377Z,936.3
2019-04-01T07:30:19.251Z,936.3
2019-04-01T07:31:21.771Z,936.2
2019-04-01T07:32:21.657Z,936.3
2019-04-01T07:33:21.592Z,936.2
2019-04-01T07:34:21.513Z,936.2
2019-04-01T07:35:21.399Z,936.3
2019-04-01T07:36:21.301Z,936.3
2019-04-01T07:37:21.199Z,936.3
2019-04-01T07:38:21.090Z,936.2
2019-04-01T07:39:20.985Z,936.3
2019-04-01T07:40:20.885Z,936.3
2019-04-01T07:41:21.222Z,936.4
2019-04-01T07:42:21.114Z,936.4
2019-04-01T07:43:21.039Z,936.3
2019-04-01T07:44:20.921Z,936.4
2019-04-01T07:45:20.829Z,936.4
2019-04-01T07:46:20.821Z,936.3
2019-04-01T07:47:20.729Z,936.3
2019-04-01T07:48:20.819Z,936.4
2019-04-01T07:49:21.028Z,936.4
2019-04-01T07:50:21.308Z,936.5
2019-04-01T07:51:21.853Z,936.3
2019-04-01T07:52:21.776Z,936.4
2019-04-01T07:53:21.661Z,936.3
2019-04-01T07:54:21.584Z,936.4
2019-04-01T07:55:21.487Z,936.5
2019-04-01T07:56:21.393Z,936.4
2019-04-01T07:57:21.343Z,936.3
2019-04-01T07:58:21.246Z,936.4
2019-04-01T07:59:21.147Z,936.4
2019-04-01T08:00:21.049Z,936.4
2019-04-01T08:01:21.407Z,935.9
2019-04-01T08:02:21.310Z,935.8
2019-04-01T08:03:21.241Z,936.5
2019-04-01T08:04:21.143Z,936.4
2019-04-01T08:05:21.027Z,936
2019-04-01T08:06:20.933Z,936.3
2019-04-01T08:07:20.821Z,935.3
2019-04-01T08:08:20.727Z,936.5
2019-04-01T08:09:20.646Z,936.4
2019-04-01T08:10:20.563Z,936.4
2019-04-01T08:11:20.921Z,936.4
2019-04-01T08:12:20.825Z,936.4
2019-04-01T08:13:20.742Z,936.4
2019-04-01T08:14:20.645Z,936.5
2019-04-01T08:15:22.509Z,936.3
2019-04-01T08:16:22.417Z,936.4
2019-04-01T08:17:22.327Z,936.4
2019-04-01T08:18:22.221Z,936.3
2019-04-01T08:19:22.123Z,936.3
2019-04-01T08:20:22.054Z,936.5
2019-04-01T08:21:22.426Z,936.4
2019-04-01T08:22:22.317Z,936.4
2019-04-01T08:23:22.222Z,936.4
2019-04-01T08:24:22.085Z,936.4
2019-04-01T08:25:22.009Z,936.5
2019-04-01T08:26:21.909Z,936.4
2019-04-01T08:27:21.919Z,936.5
2019-04-01T08:28:24.755Z,936.3
2019-04-01T08:29:31.631Z,936.3
2019-04-01T08:30:31.533Z,935.6
2019-04-01T08:31:31.871Z,936.4
2019-04-01T08:32:31.843Z,936.2
2019-04-01T08:33:31.750Z,936.2
2019-04-01T08:34:31.643Z,936.4
2019-04-01T08:35:31.579Z,936.4
2019-04-01T08:36:31.476Z,936.4
2019-04-01T08:37:31.393Z,936.3
2019-04-01T08:38:31.275Z,936.3
2019-04-01T08:39:31.172Z,936.2
2019-04-01T08:40:31.068Z,936.3
2019-04-01T08:41:31.437Z,936.4
2019-04-01T08:42:31.325Z,936.4
2019-04-01T08:43:31.237Z,936.4
2019-04-01T08:44:31.147Z,936.4
2019-04-01T08:45:31.055Z,936.3
2019-04-01T08:46:30.974Z,936.4
2019-04-01T08:47:30.871Z,936.3
2019-04-01T08:48:30.853Z,936.4
2019-04-01T08:49:30.782Z,936.4
2019-04-01T08:50:30.767Z,936.4
2019-04-01T08:51:31.135Z,936.3
2019-04-01T08:52:31.025Z,936.4
2019-04-01T08:53:30.918Z,936.4
2019-04-01T08:54:30.802Z,936.4
2019-04-01T08:55:30.712Z,936.3
2019-04-01T08:56:30.697Z,936.3
2019-04-01T08:57:30.644Z,936.2
2019-04-01T08:58:30.605Z,936.3
2019-04-01T08:59:30.602Z,936.3
2019-04-01T09:00:30.516Z,936.3
2019-04-01T09:01:36.472Z,936.3
2019-04-01T09:02:36.380Z,936.2
2019-04-01T09:03:36.251Z,936.1
2019-04-01T09:04:36.127Z,936.2
2019-04-01T09:05:36.117Z,936.2
2019-04-01T09:06:36.042Z,936.2
2019-04-01T09:07:35.960Z,936.2
2019-04-01T09:08:35.880Z,936.1
2019-04-01T09:09:35.759Z,936.2
2019-04-01T09:10:35.742Z,936.2
2019-04-01T09:11:39.573Z,936.2
2019-04-01T09:12:39.557Z,936.3
2019-04-01T09:13:39.432Z,936.2
2019-04-01T09:14:39.332Z,936.2
2019-04-01T09:15:39.285Z,936.2
2019-04-01T09:16:39.186Z,936.2
2019-04-01T09:17:41.480Z,936.2
2019-04-01T09:18:41.378Z,936
2019-04-01T09:19:41.325Z,936.1
2019-04-01T09:20:41.241Z,936.1
2019-04-01T09:21:41.587Z,936.2
2019-04-01T09:22:41.508Z,936
2019-04-01T09:23:41.412Z,936
2019-04-01T09:24:41.327Z,935
2019-04-01T09:25:41.210Z,936
2019-04-01T09:26:41.106Z,936.2
2019-04-01T09:27:40.994Z,936.2
2019-04-01T09:28:40.961Z,936.2
2019-04-01T09:29:40.868Z,936.2
2019-04-01T09:30:40.794Z,936.2
2019-04-01T09:31:41.228Z,936.2
2019-04-01T09:32:41.143Z,936.1
2019-04-01T09:33:41.078Z,936
2019-04-01T09:34:40.952Z,936.2
2019-04-01T09:35:42.058Z,936.2
2019-04-01T09:36:41.966Z,936.2
2019-04-01T09:37:41.889Z,936.2
2019-04-01T09:38:41.806Z,936.2
2019-04-01T09:39:41.697Z,936.1
2019-04-01T09:40:41.590Z,936.2
2019-04-01T09:41:43.989Z,936
2019-04-01T09:42:44.092Z,936.2
2019-04-01T09:43:44.002Z,936
2019-04-01T09:44:43.889Z,936.1
2019-04-01T09:45:43.794Z,936.2
2019-04-01T09:46:43.680Z,936.1
2019-04-01T09:47:43.559Z,936.2
2019-04-01T09:48:43.506Z,936.2
2019-04-01T09:49:43.382Z,936.2
2019-04-01T09:50:43.310Z,936.2
2019-04-01T09:51:50.032Z,936.1
2019-04-01T09:52:49.956Z,936.1
2019-04-01T09:53:49.928Z,936.1
2019-04-01T09:54:49.842Z,936.1
2019-04-01T09:55:49.740Z,936.1
2019-04-01T09:56:49.612Z,935.9
2019-04-01T09:57:49.530Z,936
2019-04-01T09:58:49.427Z,935.9
2019-04-01T09:59:49.344Z,936
2019-04-01T10:00:54.036Z,936
2019-04-01T10:01:54.371Z,935.9
2019-04-01T10:02:54.266Z,935.9
2019-04-01T10:03:54.174Z,935.9
2019-04-01T10:04:54.087Z,935.9
2019-04-01T10:05:53.958Z,936
2019-04-01T10:06:53.848Z,935.9
2019-04-01T10:07:53.764Z,936
2019-04-01T10:08:53.640Z,935.9
2019-04-01T10:09:53.518Z,936
2019-04-01T10:10:53.428Z,935.9
2019-04-01T10:11:53.860Z,935.9
2019-04-01T10:12:53.757Z,935.9
2019-04-01T10:13:53.649Z,935.8
2019-04-01T10:14:53.558Z,935.8
2019-04-01T10:15:53.472Z,935.9
2019-04-01T10:16:53.360Z,935.4
2019-04-01T10:17:53.271Z,935.2
2019-04-01T10:18:53.299Z,935.8
2019-04-01T10:19:53.253Z,935.8
2019-04-01T10:20:53.146Z,935.8
2019-04-01T10:21:53.595Z,934.6
2019-04-01T10:22:53.487Z,935.7
2019-04-01T10:23:53.424Z,935.9
2019-04-01T10:24:53.355Z,935.8
2019-04-01T10:25:53.257Z,935.8
2019-04-01T10:26:53.166Z,935.9
2019-04-01T10:27:53.089Z,935.6
2019-04-01T10:28:53.088Z,935.8
2019-04-01T10:29:52.988Z,935.8
2019-04-01T10:30:52.890Z,935.8
2019-04-01T10:31:53.269Z,935.8
2019-04-01T10:32:53.156Z,935.7
2019-04-01T10:33:53.142Z,935.8
2019-04-01T10:34:53.039Z,935.7
2019-04-01T10:35:52.958Z,935.6
2019-04-01T10:36:52.873Z,935.6
2019-04-01T10:37:52.789Z,935.6
2019-04-01T10:38:52.692Z,935.7
2019-04-01T10:39:52.715Z,935.7
2019-04-01T10:40:52.686Z,935.7
2019-04-01T10:41:53.246Z,935.6
2019-04-01T10:42:53.137Z,935.7
2019-04-01T10:43:53.035Z,934.6
2019-04-01T10:44:52.978Z,935.6
2019-04-01T10:45:52.919Z,935.6
2019-04-01T10:46:53.308Z,935.7
2019-04-01T10:47:53.585Z,935.7
2019-04-01T10:48:53.770Z,935.7
2019-04-01T10:49:53.972Z,935.6
2019-04-01T10:50:54.454Z,935.6
2019-04-01T10:51:55.642Z,935.5
2019-04-01T10:52:55.924Z,934.4
2019-04-01T10:53:56.147Z,935.6
2019-04-01T10:54:56.319Z,935.5
2019-04-01T10:55:56.621Z,935.6
2019-04-01T10:56:56.706Z,935.6
2019-04-01T10:57:57.017Z,935.6
2019-04-01T10:58:57.275Z,935.6
2019-04-01T10:59:57.404Z,935.5
2019-04-01T11:00:57.646Z,935.5
2019-04-01T11:01:58.515Z,935.4
2019-04-01T11:02:58.658Z,935.6
2019-04-01T11:03:58.896Z,935.5
2019-04-01T11:04:59.090Z,935.5
2019-04-01T11:05:59.476Z,935.4
2019-04-01T11:06:59.986Z,935.3
2019-04-01T11:08:00.187Z,935.5
2019-04-01T11:09:00.462Z,935.4
2019-04-01T11:10:00.667Z,935.5
2019-04-01T11:11:00.588Z,935.5
2019-04-01T11:12:01.056Z,935.5
2019-04-01T11:13:00.975Z,935.4
2019-04-01T11:14:00.875Z,935.4
2019-04-01T11:15:01.100Z,935.4
2019-04-01T11:16:00.985Z,935.5
2019-04-01T11:17:05.494Z,935.4
2019-04-01T11:18:05.405Z,935.4
2019-04-01T11:19:05.317Z,935.4
2019-04-01T11:20:05.213Z,935.4
2019-04-01T11:21:06.244Z,935.4
2019-04-01T11:22:06.598Z,935.3
2019-04-01T11:23:06.531Z,935.4
2019-04-01T11:24:08.638Z,935.4
2019-04-01T11:25:08.678Z,935.4
2019-04-01T11:26:08.609Z,934.1
2019-04-01T11:27:08.560Z,935.4
2019-04-01T11:28:08.454Z,935.4
2019-04-01T11:29:08.329Z,935.4
2019-04-01T11:30:09.247Z,935.3
2019-04-01T11:31:09.254Z,935.3
2019-04-01T11:32:14.214Z,935.3
2019-04-01T11:33:14.453Z,935.3
2019-04-01T11:34:14.693Z,935.2
2019-04-01T11:35:16.576Z,935.3
2019-04-01T11:36:16.678Z,935.2
2019-04-01T11:37:16.758Z,935.2
2019-04-01T11:38:16.749Z,935.3
2019-04-01T11:39:16.861Z,935.1
2019-04-01T11:40:16.946Z,935.3
2019-04-01T11:41:17.017Z,935.3
2019-04-01T11:42:17.765Z,935.3
2019-04-01T11:43:17.860Z,935.3
2019-04-01T11:44:18.057Z,935.2
2019-04-01T11:45:18.313Z,935.3
2019-04-01T11:46:18.402Z,935.2
2019-04-01T11:47:22.862Z,935.2
2019-04-01T11:48:22.981Z,935.2
2019-04-01T11:49:23.020Z,935.2
2019-04-01T11:50:23.037Z,935.1
2019-04-01T11:51:40.963Z,935.2
2019-04-01T11:52:45.461Z,935.2
2019-04-01T11:53:45.422Z,935.1
2019-04-01T11:54:45.325Z,933.8
2019-04-01T11:55:45.231Z,933.7
2019-04-01T11:56:45.149Z,935.1
2019-04-01T11:57:45.086Z,935
2019-04-01T11:58:44.996Z,935
2019-04-01T11:59:44.924Z,935.1
2019-04-01T12:00:44.857Z,935
2019-04-01T12:01:44.755Z,935
2019-04-01T12:02:47.367Z,935
2019-04-01T12:03:47.271Z,935
2019-04-01T12:04:47.162Z,935
2019-04-01T12:05:47.077Z,935
2019-04-01T12:06:47.041Z,935
2019-04-01T12:07:47.043Z,934.9
2019-04-01T12:08:47.014Z,935
2019-04-01T12:09:46.906Z,935
2019-04-01T12:10:46.795Z,934.9
2019-04-01T12:11:46.685Z,934.9
2019-04-01T12:12:54.681Z,934.9
2019-04-01T12:13:54.605Z,934.9
2019-04-01T12:14:54.499Z,934.9
2019-04-01T12:15:54.387Z,935
2019-04-01T12:16:54.288Z,934.9
2019-04-01T12:17:54.176Z,934.8
2019-04-01T12:18:54.104Z,934.8
2019-04-01T12:19:54.311Z,934
2019-04-01T12:20:54.204Z,934.7
2019-04-01T12:21:54.111Z,934.7
2019-04-01T12:22:54.516Z,934.8
2019-04-01T12:23:54.422Z,934.7
2019-04-01T12:24:54.334Z,934.7
2019-04-01T12:25:54.233Z,934.7
2019-04-01T12:26:54.132Z,934.8
2019-04-01T12:27:54.036Z,934.7
2019-04-01T12:28:53.955Z,934.6
2019-04-01T12:29:53.848Z,934.7
2019-04-01T12:30:53.759Z,934.6
2019-04-01T12:31:53.754Z,934.7
2019-04-01T12:32:54.110Z,934.7
2019-04-01T12:33:54.049Z,934.7
2019-04-01T12:34:53.954Z,934.7
2019-04-01T12:35:53.868Z,934.7
2019-04-01T12:36:53.798Z,934.6
2019-04-01T12:37:53.710Z,934.6
2019-04-01T12:38:54.820Z,934.6
2019-04-01T12:39:54.838Z,934.6
2019-04-01T12:40:54.760Z,934.7
2019-04-01T12:41:54.648Z,934.6
2019-04-01T12:42:55.574Z,934.5
2019-04-01T12:43:55.503Z,934.7
2019-04-01T12:44:55.409Z,934.7
2019-04-01T12:45:55.329Z,934.7
2019-04-01T12:46:55.246Z,934.7
2019-04-01T12:47:54.982Z,934.6
2019-04-01T12:48:54.866Z,934.7
2019-04-01T12:49:54.632Z,934.6
2019-04-01T12:50:54.527Z,934.7
2019-04-01T12:51:58.019Z,934.6
2019-04-01T12:52:58.824Z,934.6
2019-04-01T12:53:58.745Z,934.6
2019-04-01T12:55:02.124Z,934.5
2019-04-01T12:56:02.039Z,934.6
2019-04-01T12:57:01.928Z,934.5
2019-04-01T12:58:01.822Z,934.5
2019-04-01T12:59:01.740Z,934.5
2019-04-01T13:00:01.798Z,934.6